sensor_id;sensor_type;location;lat;lon;timestamp;P1;durP1;ratioP1;P2;durP2;ratioP2
37299;SDS011;23184;51.902;12.836;2024-01-30T00:00:59;12.82;;;5.80;;
37299;SDS011;23184;51.902;12.836;2024-01-30T00:03:24;13.18;;;6.10;;
37299;SDS011;23184;51.902;12.836;2024-01-30T00:05:49;11.10;;;5.47;;
37299;SDS011;23184;51.902;12.836;2024-01-30T00:08:15;9.98;;;5.43;;
37299;SDS011;23184;51.902;12.836;2024-01-30T00:10:40;14.15;;;5.80;;
37299;SDS011;23184;51.902;12.836;2024-01-30T00:13:07;13.52;;;6.03;;
37299;SDS011;23184;51.902;12.836;2024-01-30T00:15:33;13.73;;;6.22;;
37299;SDS011;23184;51.902;12.836;2024-01-30T00:17:59;13.18;;;5.40;;
37299;SDS011;23184;51.902;12.836;2024-01-30T00:20:25;9.50;;;5.07;;
37299;SDS011;23184;51.902;12.836;2024-01-30T00:22:50;11.65;;;5.57;;
37299;SDS011;23184;51.902;12.836;2024-01-30T00:25:16;14.57;;;6.88;;
37299;SDS011;23184;51.902;12.836;2024-01-30T00:27:41;11.43;;;5.70;;
37299;SDS011;23184;51.902;12.836;2024-01-30T00:30:07;10.93;;;5.72;;
37299;SDS011;23184;51.902;12.836;2024-01-30T00:32:33;13.75;;;5.63;;
37299;SDS011;23184;51.902;12.836;2024-01-30T00:34:58;13.93;;;6.47;;
37299;SDS011;23184;51.902;12.836;2024-01-30T00:37:24;14.77;;;5.45;;
37299;SDS011;23184;51.902;12.836;2024-01-30T00:39:49;11.55;;;5.90;;
37299;SDS011;23184;51.902;12.836;2024-01-30T00:42:15;14.63;;;5.60;;
37299;SDS011;23184;51.902;12.836;2024-01-30T00:44:40;11.20;;;5.53;;
37299;SDS011;23184;51.902;12.836;2024-01-30T00:47:06;13.93;;;6.03;;
37299;SDS011;23184;51.902;12.836;2024-01-30T00:49:31;16.05;;;6.72;;
37299;SDS011;23184;51.902;12.836;2024-01-30T00:51:57;11.93;;;5.53;;
37299;SDS011;23184;51.902;12.836;2024-01-30T00:54:23;13.05;;;6.10;;
37299;SDS011;23184;51.902;12.836;2024-01-30T00:56:48;13.45;;;6.32;;
37299;SDS011;23184;51.902;12.836;2024-01-30T00:59:13;12.25;;;4.97;;
37299;SDS011;23184;51.902;12.836;2024-01-30T01:01:39;13.13;;;5.50;;
37299;SDS011;23184;51.902;12.836;2024-01-30T01:04:05;13.50;;;5.65;;
37299;SDS011;23184;51.902;12.836;2024-01-30T01:06:30;11.75;;;5.60;;
37299;SDS011;23184;51.902;12.836;2024-01-30T01:08:56;10.57;;;5.30;;
37299;SDS011;23184;51.902;12.836;2024-01-30T01:11:21;11.40;;;5.30;;
37299;SDS011;23184;51.902;12.836;2024-01-30T01:13:47;11.27;;;6.15;;
37299;SDS011;23184;51.902;12.836;2024-01-30T01:16:12;15.23;;;7.22;;
37299;SDS011;23184;51.902;12.836;2024-01-30T01:18:38;14.50;;;5.20;;
37299;SDS011;23184;51.902;12.836;2024-01-30T01:21:04;11.98;;;5.53;;
37299;SDS011;23184;51.902;12.836;2024-01-30T01:23:30;10.82;;;5.10;;
37299;SDS011;23184;51.902;12.836;2024-01-30T01:25:55;10.73;;;5.03;;
37299;SDS011;23184;51.902;12.836;2024-01-30T01:28:21;14.82;;;5.53;;
37299;SDS011;23184;51.902;12.836;2024-01-30T01:30:46;11.85;;;5.13;;
37299;SDS011;23184;51.902;12.836;2024-01-30T01:33:12;11.85;;;5.13;;
37299;SDS011;23184;51.902;12.836;2024-01-30T01:35:39;15.60;;;5.35;;
37299;SDS011;23184;51.902;12.836;2024-01-30T01:38:05;13.25;;;5.28;;
37299;SDS011;23184;51.902;12.836;2024-01-30T01:40:30;12.85;;;5.18;;
37299;SDS011;23184;51.902;12.836;2024-01-30T01:42:56;10.23;;;4.93;;
37299;SDS011;23184;51.902;12.836;2024-01-30T01:45:21;10.55;;;5.18;;
37299;SDS011;23184;51.902;12.836;2024-01-30T01:47:48;11.50;;;4.72;;
37299;SDS011;23184;51.902;12.836;2024-01-30T01:50:16;11.32;;;5.40;;
37299;SDS011;23184;51.902;12.836;2024-01-30T01:52:48;11.07;;;4.68;;
37299;SDS011;23184;51.902;12.836;2024-01-30T01:55:15;11.45;;;4.63;;
37299;SDS011;23184;51.902;12.836;2024-01-30T01:57:43;8.80;;;4.72;;
37299;SDS011;23184;51.902;12.836;2024-01-30T02:00:09;13.10;;;5.57;;
37299;SDS011;23184;51.902;12.836;2024-01-30T02:02:36;12.82;;;5.50;;
37299;SDS011;23184;51.902;12.836;2024-01-30T02:05:04;17.58;;;6.00;;
37299;SDS011;23184;51.902;12.836;2024-01-30T02:07:29;12.18;;;5.72;;
37299;SDS011;23184;51.902;12.836;2024-01-30T02:09:55;11.05;;;4.88;;
37299;SDS011;23184;51.902;12.836;2024-01-30T02:12:21;10.43;;;5.70;;
37299;SDS011;23184;51.902;12.836;2024-01-30T02:14:47;13.30;;;4.88;;
37299;SDS011;23184;51.902;12.836;2024-01-30T02:17:13;8.00;;;4.25;;
37299;SDS011;23184;51.902;12.836;2024-01-30T02:19:39;11.13;;;5.10;;
37299;SDS011;23184;51.902;12.836;2024-01-30T02:22:05;9.75;;;5.28;;
37299;SDS011;23184;51.902;12.836;2024-01-30T02:24:31;8.75;;;4.90;;
37299;SDS011;23184;51.902;12.836;2024-01-30T02:26:56;9.63;;;4.82;;
37299;SDS011;23184;51.902;12.836;2024-01-30T02:29:22;10.85;;;5.32;;
37299;SDS011;23184;51.902;12.836;2024-01-30T02:31:48;7.70;;;4.22;;
37299;SDS011;23184;51.902;12.836;2024-01-30T02:34:13;12.35;;;5.38;;
37299;SDS011;23184;51.902;12.836;2024-01-30T02:36:42;12.15;;;5.05;;
37299;SDS011;23184;51.902;12.836;2024-01-30T02:39:08;9.38;;;5.03;;
37299;SDS011;23184;51.902;12.836;2024-01-30T02:41:34;10.20;;;4.80;;
37299;SDS011;23184;51.902;12.836;2024-01-30T02:44:00;12.93;;;5.15;;
37299;SDS011;23184;51.902;12.836;2024-01-30T02:46:26;11.23;;;4.82;;
37299;SDS011;23184;51.902;12.836;2024-01-30T02:48:51;9.68;;;4.32;;
37299;SDS011;23184;51.902;12.836;2024-01-30T02:51:17;10.90;;;5.18;;
37299;SDS011;23184;51.902;12.836;2024-01-30T02:53:42;9.70;;;4.32;;
37299;SDS011;23184;51.902;12.836;2024-01-30T02:56:08;10.48;;;5.43;;
37299;SDS011;23184;51.902;12.836;2024-01-30T02:58:35;11.82;;;4.82;;
37299;SDS011;23184;51.902;12.836;2024-01-30T03:01:01;9.65;;;5.05;;
37299;SDS011;23184;51.902;12.836;2024-01-30T03:03:27;10.85;;;5.50;;
37299;SDS011;23184;51.902;12.836;2024-01-30T03:05:53;10.23;;;5.03;;
37299;SDS011;23184;51.902;12.836;2024-01-30T03:08:18;10.25;;;4.68;;
37299;SDS011;23184;51.902;12.836;2024-01-30T03:10:44;13.18;;;5.13;;
37299;SDS011;23184;51.902;12.836;2024-01-30T03:13:09;11.02;;;5.00;;
37299;SDS011;23184;51.902;12.836;2024-01-30T03:15:35;12.23;;;5.18;;
37299;SDS011;23184;51.902;12.836;2024-01-30T03:18:00;10.25;;;4.70;;
37299;SDS011;23184;51.902;12.836;2024-01-30T03:20:26;14.50;;;5.20;;
37299;SDS011;23184;51.902;12.836;2024-01-30T03:22:53;13.27;;;4.90;;
37299;SDS011;23184;51.902;12.836;2024-01-30T03:25:19;10.82;;;4.72;;
37299;SDS011;23184;51.902;12.836;2024-01-30T03:27:45;10.65;;;4.93;;
37299;SDS011;23184;51.902;12.836;2024-01-30T03:30:10;10.45;;;5.00;;
37299;SDS011;23184;51.902;12.836;2024-01-30T03:32:36;10.35;;;5.30;;
37299;SDS011;23184;51.902;12.836;2024-01-30T03:35:01;11.15;;;5.13;;
37299;SDS011;23184;51.902;12.836;2024-01-30T03:37:27;9.63;;;5.00;;
37299;SDS011;23184;51.902;12.836;2024-01-30T03:39:52;11.05;;;5.32;;
37299;SDS011;23184;51.902;12.836;2024-01-30T03:42:18;14.15;;;5.47;;
37299;SDS011;23184;51.902;12.836;2024-01-30T03:44:43;10.63;;;5.50;;
37299;SDS011;23184;51.902;12.836;2024-01-30T03:47:09;12.98;;;5.35;;
37299;SDS011;23184;51.902;12.836;2024-01-30T03:49:34;11.20;;;4.75;;
37299;SDS011;23184;51.902;12.836;2024-01-30T03:52:00;11.60;;;5.65;;
37299;SDS011;23184;51.902;12.836;2024-01-30T03:54:25;11.98;;;4.97;;
37299;SDS011;23184;51.902;12.836;2024-01-30T03:56:51;12.00;;;5.28;;
37299;SDS011;23184;51.902;12.836;2024-01-30T03:59:16;10.88;;;5.25;;
37299;SDS011;23184;51.902;12.836;2024-01-30T04:01:47;10.52;;;5.30;;
37299;SDS011;23184;51.902;12.836;2024-01-30T04:04:12;11.77;;;5.70;;
37299;SDS011;23184;51.902;12.836;2024-01-30T04:06:38;10.05;;;5.45;;
37299;SDS011;23184;51.902;12.836;2024-01-30T04:09:03;14.93;;;7.40;;
37299;SDS011;23184;51.902;12.836;2024-01-30T04:11:29;13.15;;;5.05;;
37299;SDS011;23184;51.902;12.836;2024-01-30T04:13:54;13.10;;;5.30;;
37299;SDS011;23184;51.902;12.836;2024-01-30T04:16:20;10.68;;;5.10;;
37299;SDS011;23184;51.902;12.836;2024-01-30T04:18:49;14.10;;;5.53;;
37299;SDS011;23184;51.902;12.836;2024-01-30T04:21:14;12.52;;;5.60;;
37299;SDS011;23184;51.902;12.836;2024-01-30T04:23:40;11.85;;;5.93;;
37299;SDS011;23184;51.902;12.836;2024-01-30T04:26:06;18.20;;;7.35;;
37299;SDS011;23184;51.902;12.836;2024-01-30T04:28:31;12.75;;;5.60;;
37299;SDS011;23184;51.902;12.836;2024-01-30T04:30:57;11.93;;;5.72;;
37299;SDS011;23184;51.902;12.836;2024-01-30T04:33:22;12.25;;;5.93;;
37299;SDS011;23184;51.902;12.836;2024-01-30T04:35:48;13.85;;;6.13;;
37299;SDS011;23184;51.902;12.836;2024-01-30T04:38:13;13.40;;;5.88;;
37299;SDS011;23184;51.902;12.836;2024-01-30T04:40:39;15.05;;;6.40;;
37299;SDS011;23184;51.902;12.836;2024-01-30T04:43:05;13.10;;;5.78;;
37299;SDS011;23184;51.902;12.836;2024-01-30T04:45:31;10.70;;;5.40;;
37299;SDS011;23184;51.902;12.836;2024-01-30T04:47:56;10.63;;;5.35;;
37299;SDS011;23184;51.902;12.836;2024-01-30T04:50:22;11.77;;;5.78;;
37299;SDS011;23184;51.902;12.836;2024-01-30T04:52:48;12.93;;;5.88;;
37299;SDS011;23184;51.902;12.836;2024-01-30T04:55:13;11.75;;;5.50;;
37299;SDS011;23184;51.902;12.836;2024-01-30T04:57:39;14.52;;;5.40;;
37299;SDS011;23184;51.902;12.836;2024-01-30T05:00:05;13.52;;;6.28;;
37299;SDS011;23184;51.902;12.836;2024-01-30T05:02:31;11.77;;;5.10;;
37299;SDS011;23184;51.902;12.836;2024-01-30T05:04:57;12.20;;;5.53;;
37299;SDS011;23184;51.902;12.836;2024-01-30T05:07:24;13.55;;;5.63;;
37299;SDS011;23184;51.902;12.836;2024-01-30T05:09:49;11.93;;;5.78;;
37299;SDS011;23184;51.902;12.836;2024-01-30T05:12:15;13.15;;;6.05;;
37299;SDS011;23184;51.902;12.836;2024-01-30T05:14:40;12.02;;;6.15;;
37299;SDS011;23184;51.902;12.836;2024-01-30T05:17:06;12.45;;;5.82;;
37299;SDS011;23184;51.902;12.836;2024-01-30T05:19:33;14.13;;;5.93;;
37299;SDS011;23184;51.902;12.836;2024-01-30T05:21:58;12.05;;;5.53;;
37299;SDS011;23184;51.902;12.836;2024-01-30T05:24:24;14.57;;;6.40;;
37299;SDS011;23184;51.902;12.836;2024-01-30T05:26:49;11.85;;;5.82;;
37299;SDS011;23184;51.902;12.836;2024-01-30T05:29:16;12.93;;;5.93;;
37299;SDS011;23184;51.902;12.836;2024-01-30T05:31:41;13.93;;;6.28;;
37299;SDS011;23184;51.902;12.836;2024-01-30T05:34:07;14.43;;;5.95;;
37299;SDS011;23184;51.902;12.836;2024-01-30T05:36:33;12.38;;;5.25;;
37299;SDS011;23184;51.902;12.836;2024-01-30T05:38:59;13.98;;;6.90;;
37299;SDS011;23184;51.902;12.836;2024-01-30T05:41:24;10.73;;;5.28;;
37299;SDS011;23184;51.902;12.836;2024-01-30T05:43:50;11.57;;;5.55;;
37299;SDS011;23184;51.902;12.836;2024-01-30T05:46:15;13.95;;;5.97;;
37299;SDS011;23184;51.902;12.836;2024-01-30T05:48:41;14.55;;;6.05;;
37299;SDS011;23184;51.902;12.836;2024-01-30T05:51:07;13.02;;;6.05;;
37299;SDS011;23184;51.902;12.836;2024-01-30T05:53:33;11.48;;;4.82;;
37299;SDS011;23184;51.902;12.836;2024-01-30T05:55:59;11.80;;;6.00;;
37299;SDS011;23184;51.902;12.836;2024-01-30T05:58:26;15.48;;;5.90;;
37299;SDS011;23184;51.902;12.836;2024-01-30T06:00:52;11.70;;;5.35;;
37299;SDS011;23184;51.902;12.836;2024-01-30T06:03:17;10.77;;;4.90;;
37299;SDS011;23184;51.902;12.836;2024-01-30T06:05:43;11.02;;;4.85;;
37299;SDS011;23184;51.902;12.836;2024-01-30T06:08:08;9.82;;;5.07;;
37299;SDS011;23184;51.902;12.836;2024-01-30T06:10:34;12.13;;;5.57;;
37299;SDS011;23184;51.902;12.836;2024-01-30T06:12:59;11.20;;;5.45;;
37299;SDS011;23184;51.902;12.836;2024-01-30T06:15:25;12.98;;;5.30;;
37299;SDS011;23184;51.902;12.836;2024-01-30T06:17:51;12.27;;;5.70;;
37299;SDS011;23184;51.902;12.836;2024-01-30T06:20:16;11.18;;;5.25;;
37299;SDS011;23184;51.902;12.836;2024-01-30T06:22:43;13.20;;;4.95;;
37299;SDS011;23184;51.902;12.836;2024-01-30T06:25:08;11.57;;;5.50;;
37299;SDS011;23184;51.902;12.836;2024-01-30T06:27:34;10.02;;;5.50;;
37299;SDS011;23184;51.902;12.836;2024-01-30T06:29:59;12.25;;;5.32;;
37299;SDS011;23184;51.902;12.836;2024-01-30T06:32:25;11.90;;;5.40;;
37299;SDS011;23184;51.902;12.836;2024-01-30T06:34:52;12.35;;;5.00;;
37299;SDS011;23184;51.902;12.836;2024-01-30T06:37:17;12.38;;;5.15;;
37299;SDS011;23184;51.902;12.836;2024-01-30T06:39:43;15.27;;;5.68;;
37299;SDS011;23184;51.902;12.836;2024-01-30T06:42:09;12.32;;;5.95;;
37299;SDS011;23184;51.902;12.836;2024-01-30T06:44:34;11.52;;;5.60;;
37299;SDS011;23184;51.902;12.836;2024-01-30T06:47:00;15.82;;;5.55;;
37299;SDS011;23184;51.902;12.836;2024-01-30T06:49:25;11.25;;;5.72;;
37299;SDS011;23184;51.902;12.836;2024-01-30T06:51:51;11.77;;;6.57;;
37299;SDS011;23184;51.902;12.836;2024-01-30T06:54:16;11.10;;;5.05;;
37299;SDS011;23184;51.902;12.836;2024-01-30T06:56:42;16.35;;;5.82;;
37299;SDS011;23184;51.902;12.836;2024-01-30T06:59:07;10.75;;;5.45;;
37299;SDS011;23184;51.902;12.836;2024-01-30T07:01:33;11.32;;;5.10;;
37299;SDS011;23184;51.902;12.836;2024-01-30T07:03:58;13.65;;;5.65;;
37299;SDS011;23184;51.902;12.836;2024-01-30T07:06:24;10.80;;;5.10;;
37299;SDS011;23184;51.902;12.836;2024-01-30T07:08:50;12.68;;;6.05;;
37299;SDS011;23184;51.902;12.836;2024-01-30T07:11:21;9.52;;;4.78;;
37299;SDS011;23184;51.902;12.836;2024-01-30T07:13:48;10.27;;;5.50;;
37299;SDS011;23184;51.902;12.836;2024-01-30T07:16:15;12.73;;;6.03;;
37299;SDS011;23184;51.902;12.836;2024-01-30T07:18:41;14.90;;;6.72;;
37299;SDS011;23184;51.902;12.836;2024-01-30T07:21:06;15.27;;;5.85;;
37299;SDS011;23184;51.902;12.836;2024-01-30T07:23:32;18.17;;;7.53;;
37299;SDS011;23184;51.902;12.836;2024-01-30T07:25:59;18.73;;;8.07;;
37299;SDS011;23184;51.902;12.836;2024-01-30T07:28:25;18.10;;;7.78;;
37299;SDS011;23184;51.902;12.836;2024-01-30T07:30:51;16.40;;;7.45;;
37299;SDS011;23184;51.902;12.836;2024-01-30T07:33:16;18.00;;;8.20;;
37299;SDS011;23184;51.902;12.836;2024-01-30T07:35:43;16.33;;;7.97;;
37299;SDS011;23184;51.902;12.836;2024-01-30T07:38:10;15.50;;;7.90;;
37299;SDS011;23184;51.902;12.836;2024-01-30T07:40:35;12.48;;;6.05;;
37299;SDS011;23184;51.902;12.836;2024-01-30T07:43:01;16.80;;;7.18;;
37299;SDS011;23184;51.902;12.836;2024-01-30T07:45:28;15.77;;;7.18;;
37299;SDS011;23184;51.902;12.836;2024-01-30T07:47:57;12.93;;;5.97;;
37299;SDS011;23184;51.902;12.836;2024-01-30T07:50:23;14.50;;;6.95;;
37299;SDS011;23184;51.902;12.836;2024-01-30T07:52:48;13.52;;;6.95;;
37299;SDS011;23184;51.902;12.836;2024-01-30T07:55:16;14.18;;;7.03;;
37299;SDS011;23184;51.902;12.836;2024-01-30T07:57:41;16.48;;;6.97;;
37299;SDS011;23184;51.902;12.836;2024-01-30T08:00:08;13.73;;;6.93;;
37299;SDS011;23184;51.902;12.836;2024-01-30T08:02:33;16.63;;;7.57;;
37299;SDS011;23184;51.902;12.836;2024-01-30T08:04:59;22.98;;;11.65;;
37299;SDS011;23184;51.902;12.836;2024-01-30T08:07:24;16.38;;;8.25;;
37299;SDS011;23184;51.902;12.836;2024-01-30T08:09:50;15.10;;;6.78;;
37299;SDS011;23184;51.902;12.836;2024-01-30T08:12:15;14.93;;;6.75;;
37299;SDS011;23184;51.902;12.836;2024-01-30T08:14:42;15.43;;;7.53;;
37299;SDS011;23184;51.902;12.836;2024-01-30T08:17:07;17.25;;;6.78;;
37299;SDS011;23184;51.902;12.836;2024-01-30T08:19:33;17.40;;;6.72;;
37299;SDS011;23184;51.902;12.836;2024-01-30T08:21:59;19.30;;;7.88;;
37299;SDS011;23184;51.902;12.836;2024-01-30T08:24:24;14.55;;;7.30;;
37299;SDS011;23184;51.902;12.836;2024-01-30T08:26:50;13.00;;;6.45;;
37299;SDS011;23184;51.902;12.836;2024-01-30T08:29:16;14.32;;;7.57;;
37299;SDS011;23184;51.902;12.836;2024-01-30T08:31:41;15.60;;;7.25;;
37299;SDS011;23184;51.902;12.836;2024-01-30T08:34:07;13.88;;;7.03;;
37299;SDS011;23184;51.902;12.836;2024-01-30T08:36:32;18.75;;;8.65;;
37299;SDS011;23184;51.902;12.836;2024-01-30T08:38:57;16.73;;;8.45;;
37299;SDS011;23184;51.902;12.836;2024-01-30T08:41:23;15.23;;;7.07;;
37299;SDS011;23184;51.902;12.836;2024-01-30T08:43:49;14.15;;;6.82;;
37299;SDS011;23184;51.902;12.836;2024-01-30T08:46:17;13.90;;;7.00;;
37299;SDS011;23184;51.902;12.836;2024-01-30T08:48:43;17.38;;;7.10;;
37299;SDS011;23184;51.902;12.836;2024-01-30T08:51:08;16.35;;;7.60;;
37299;SDS011;23184;51.902;12.836;2024-01-30T08:53:34;15.85;;;7.70;;
37299;SDS011;23184;51.902;12.836;2024-01-30T08:56:01;14.52;;;8.02;;
37299;SDS011;23184;51.902;12.836;2024-01-30T08:58:27;17.90;;;7.88;;
37299;SDS011;23184;51.902;12.836;2024-01-30T09:00:52;15.65;;;7.63;;
37299;SDS011;23184;51.902;12.836;2024-01-30T09:03:18;16.80;;;7.32;;
37299;SDS011;23184;51.902;12.836;2024-01-30T09:05:44;15.85;;;7.40;;
37299;SDS011;23184;51.902;12.836;2024-01-30T09:08:09;16.33;;;6.95;;
37299;SDS011;23184;51.902;12.836;2024-01-30T09:10:35;12.00;;;6.65;;
37299;SDS011;23184;51.902;12.836;2024-01-30T09:13:00;13.70;;;6.50;;
37299;SDS011;23184;51.902;12.836;2024-01-30T09:15:26;15.90;;;6.88;;
37299;SDS011;23184;51.902;12.836;2024-01-30T09:17:51;14.73;;;6.70;;
37299;SDS011;23184;51.902;12.836;2024-01-30T09:20:17;14.18;;;7.03;;
37299;SDS011;23184;51.902;12.836;2024-01-30T09:22:42;17.35;;;7.57;;
37299;SDS011;23184;51.902;12.836;2024-01-30T09:25:08;15.70;;;6.72;;
37299;SDS011;23184;51.902;12.836;2024-01-30T09:27:33;15.65;;;6.38;;
37299;SDS011;23184;51.902;12.836;2024-01-30T09:29:59;12.63;;;7.07;;
37299;SDS011;23184;51.902;12.836;2024-01-30T09:32:24;15.00;;;7.78;;
37299;SDS011;23184;51.902;12.836;2024-01-30T09:34:50;13.38;;;6.88;;
37299;SDS011;23184;51.902;12.836;2024-01-30T09:37:15;12.70;;;6.65;;
37299;SDS011;23184;51.902;12.836;2024-01-30T09:39:43;13.95;;;7.10;;
37299;SDS011;23184;51.902;12.836;2024-01-30T09:42:18;13.75;;;7.53;;
37299;SDS011;23184;51.902;12.836;2024-01-30T09:44:51;13.60;;;7.13;;
37299;SDS011;23184;51.902;12.836;2024-01-30T09:47:18;15.20;;;7.63;;
37299;SDS011;23184;51.902;12.836;2024-01-30T09:49:43;12.88;;;6.63;;
37299;SDS011;23184;51.902;12.836;2024-01-30T09:52:09;15.18;;;7.13;;
37299;SDS011;23184;51.902;12.836;2024-01-30T09:54:35;15.35;;;7.75;;
37299;SDS011;23184;51.902;12.836;2024-01-30T09:57:02;14.90;;;8.10;;
37299;SDS011;23184;51.902;12.836;2024-01-30T09:59:28;17.73;;;7.82;;
37299;SDS011;23184;51.902;12.836;2024-01-30T10:01:54;18.92;;;9.13;;
37299;SDS011;23184;51.902;12.836;2024-01-30T10:04:19;17.85;;;7.90;;
37299;SDS011;23184;51.902;12.836;2024-01-30T10:06:45;14.48;;;7.80;;
37299;SDS011;23184;51.902;12.836;2024-01-30T10:09:12;15.50;;;8.15;;
37299;SDS011;23184;51.902;12.836;2024-01-30T10:11:38;15.45;;;8.35;;
37299;SDS011;23184;51.902;12.836;2024-01-30T10:14:04;16.08;;;8.05;;
37299;SDS011;23184;51.902;12.836;2024-01-30T10:16:29;18.17;;;9.10;;
37299;SDS011;23184;51.902;12.836;2024-01-30T10:18:55;17.90;;;9.30;;
37299;SDS011;23184;51.902;12.836;2024-01-30T10:21:21;21.33;;;9.10;;
37299;SDS011;23184;51.902;12.836;2024-01-30T10:23:46;18.13;;;9.70;;
37299;SDS011;23184;51.902;12.836;2024-01-30T10:26:12;15.40;;;8.85;;
37299;SDS011;23184;51.902;12.836;2024-01-30T10:28:37;26.25;;;9.82;;
37299;SDS011;23184;51.902;12.836;2024-01-30T10:31:03;17.73;;;8.68;;
37299;SDS011;23184;51.902;12.836;2024-01-30T10:33:29;20.05;;;9.05;;
37299;SDS011;23184;51.902;12.836;2024-01-30T10:36:00;15.95;;;8.20;;
37299;SDS011;23184;51.902;12.836;2024-01-30T10:38:30;17.20;;;7.93;;
37299;SDS011;23184;51.902;12.836;2024-01-30T10:40:57;17.05;;;8.98;;
37299;SDS011;23184;51.902;12.836;2024-01-30T10:43:24;18.02;;;8.57;;
37299;SDS011;23184;51.902;12.836;2024-01-30T10:45:59;17.40;;;8.00;;
37299;SDS011;23184;51.902;12.836;2024-01-30T10:50:57;16.85;;;8.40;;
37299;SDS011;23184;51.902;12.836;2024-01-30T10:53:25;21.60;;;8.25;;
37299;SDS011;23184;51.902;12.836;2024-01-30T10:55:52;18.27;;;8.73;;
37299;SDS011;23184;51.902;12.836;2024-01-30T10:58:20;19.80;;;8.63;;
37299;SDS011;23184;51.902;12.836;2024-01-30T11:00:46;17.08;;;8.35;;
37299;SDS011;23184;51.902;12.836;2024-01-30T11:03:14;19.80;;;8.52;;
37299;SDS011;23184;51.902;12.836;2024-01-30T11:05:41;15.43;;;7.38;;
37299;SDS011;23184;51.902;12.836;2024-01-30T11:08:11;17.60;;;8.25;;
37299;SDS011;23184;51.902;12.836;2024-01-30T11:10:44;18.30;;;7.50;;
37299;SDS011;23184;51.902;12.836;2024-01-30T11:13:13;13.38;;;7.63;;
37299;SDS011;23184;51.902;12.836;2024-01-30T11:15:38;15.95;;;7.80;;
37299;SDS011;23184;51.902;12.836;2024-01-30T11:18:05;17.27;;;8.18;;
37299;SDS011;23184;51.902;12.836;2024-01-30T11:20:31;14.20;;;8.10;;
37299;SDS011;23184;51.902;12.836;2024-01-30T11:22:57;17.25;;;8.63;;
37299;SDS011;23184;51.902;12.836;2024-01-30T11:25:24;19.15;;;8.40;;
37299;SDS011;23184;51.902;12.836;2024-01-30T11:27:51;16.83;;;8.38;;
37299;SDS011;23184;51.902;12.836;2024-01-30T11:30:24;23.20;;;8.23;;
37299;SDS011;23184;51.902;12.836;2024-01-30T11:32:58;13.23;;;7.27;;
37299;SDS011;23184;51.902;12.836;2024-01-30T11:35:40;15.63;;;7.35;;
37299;SDS011;23184;51.902;12.836;2024-01-30T11:38:07;16.80;;;7.25;;
37299;SDS011;23184;51.902;12.836;2024-01-30T11:40:34;16.45;;;7.72;;
37299;SDS011;23184;51.902;12.836;2024-01-30T11:43:02;18.65;;;8.57;;
37299;SDS011;23184;51.902;12.836;2024-01-30T11:45:29;21.15;;;8.32;;
37299;SDS011;23184;51.902;12.836;2024-01-30T11:47:55;15.27;;;7.47;;
37299;SDS011;23184;51.902;12.836;2024-01-30T11:50:22;15.00;;;7.65;;
37299;SDS011;23184;51.902;12.836;2024-01-30T11:52:47;16.85;;;8.18;;
37299;SDS011;23184;51.902;12.836;2024-01-30T11:55:13;13.38;;;7.57;;
37299;SDS011;23184;51.902;12.836;2024-01-30T11:57:40;16.00;;;7.07;;
37299;SDS011;23184;51.902;12.836;2024-01-30T12:00:05;17.30;;;7.47;;
37299;SDS011;23184;51.902;12.836;2024-01-30T12:02:39;15.82;;;6.75;;
37299;SDS011;23184;51.902;12.836;2024-01-30T12:05:05;15.50;;;8.02;;
37299;SDS011;23184;51.902;12.836;2024-01-30T12:07:32;17.10;;;9.07;;
37299;SDS011;23184;51.902;12.836;2024-01-30T12:09:57;16.15;;;8.13;;
37299;SDS011;23184;51.902;12.836;2024-01-30T12:12:24;16.88;;;7.90;;
37299;SDS011;23184;51.902;12.836;2024-01-30T12:14:50;16.40;;;8.25;;
37299;SDS011;23184;51.902;12.836;2024-01-30T12:17:27;18.05;;;8.00;;
37299;SDS011;23184;51.902;12.836;2024-01-30T12:22:28;16.17;;;8.32;;
37299;SDS011;23184;51.902;12.836;2024-01-30T12:24:54;16.33;;;8.60;;
37299;SDS011;23184;51.902;12.836;2024-01-30T12:27:19;18.38;;;8.45;;
37299;SDS011;23184;51.902;12.836;2024-01-30T12:29:45;14.27;;;7.95;;
37299;SDS011;23184;51.902;12.836;2024-01-30T12:32:14;16.10;;;8.57;;
37299;SDS011;23184;51.902;12.836;2024-01-30T12:34:43;14.25;;;8.68;;
37299;SDS011;23184;51.902;12.836;2024-01-30T12:37:08;16.25;;;8.57;;
37299;SDS011;23184;51.902;12.836;2024-01-30T12:39:35;18.75;;;7.88;;
37299;SDS011;23184;51.902;12.836;2024-01-30T12:42:00;15.30;;;7.82;;
37299;SDS011;23184;51.902;12.836;2024-01-30T12:44:26;14.35;;;7.75;;
37299;SDS011;23184;51.902;12.836;2024-01-30T12:46:52;16.42;;;8.27;;
37299;SDS011;23184;51.902;12.836;2024-01-30T12:49:17;18.15;;;9.07;;
37299;SDS011;23184;51.902;12.836;2024-01-30T12:51:43;16.20;;;8.68;;
37299;SDS011;23184;51.902;12.836;2024-01-30T12:54:08;14.85;;;7.78;;
37299;SDS011;23184;51.902;12.836;2024-01-30T12:56:34;17.83;;;9.23;;
37299;SDS011;23184;51.902;12.836;2024-01-30T12:58:59;18.08;;;8.45;;
37299;SDS011;23184;51.902;12.836;2024-01-30T13:01:25;18.02;;;9.32;;
37299;SDS011;23184;51.902;12.836;2024-01-30T13:03:50;19.58;;;8.07;;
37299;SDS011;23184;51.902;12.836;2024-01-30T13:06:17;18.23;;;8.05;;
37299;SDS011;23184;51.902;12.836;2024-01-30T13:08:42;18.48;;;8.32;;
37299;SDS011;23184;51.902;12.836;2024-01-30T13:11:08;16.45;;;8.02;;
37299;SDS011;23184;51.902;12.836;2024-01-30T13:13:33;16.42;;;7.25;;
37299;SDS011;23184;51.902;12.836;2024-01-30T13:16:00;14.63;;;7.22;;
37299;SDS011;23184;51.902;12.836;2024-01-30T13:18:26;17.08;;;7.28;;
37299;SDS011;23184;51.902;12.836;2024-01-30T13:20:51;13.43;;;7.60;;
37299;SDS011;23184;51.902;12.836;2024-01-30T13:23:17;13.10;;;7.10;;
37299;SDS011;23184;51.902;12.836;2024-01-30T13:25:42;11.85;;;6.35;;
37299;SDS011;23184;51.902;12.836;2024-01-30T13:28:08;12.25;;;6.95;;
37299;SDS011;23184;51.902;12.836;2024-01-30T13:30:33;13.35;;;6.63;;
37299;SDS011;23184;51.902;12.836;2024-01-30T13:32:59;13.18;;;6.93;;
37299;SDS011;23184;51.902;12.836;2024-01-30T13:35:24;15.20;;;6.30;;
37299;SDS011;23184;51.902;12.836;2024-01-30T13:37:50;10.95;;;6.28;;
37299;SDS011;23184;51.902;12.836;2024-01-30T13:40:15;12.43;;;6.38;;
37299;SDS011;23184;51.902;12.836;2024-01-30T13:42:41;12.25;;;6.53;;
37299;SDS011;23184;51.902;12.836;2024-01-30T13:45:07;16.17;;;6.57;;
37299;SDS011;23184;51.902;12.836;2024-01-30T13:47:34;14.45;;;6.68;;
37299;SDS011;23184;51.902;12.836;2024-01-30T13:50:00;12.15;;;6.47;;
37299;SDS011;23184;51.902;12.836;2024-01-30T13:52:25;18.05;;;6.97;;
37299;SDS011;23184;51.902;12.836;2024-01-30T13:54:52;13.00;;;6.80;;
37299;SDS011;23184;51.902;12.836;2024-01-30T13:57:17;12.10;;;6.68;;
37299;SDS011;23184;51.902;12.836;2024-01-30T13:59:43;12.63;;;6.57;;
37299;SDS011;23184;51.902;12.836;2024-01-30T14:02:09;11.10;;;5.90;;
37299;SDS011;23184;51.902;12.836;2024-01-30T14:04:35;14.65;;;7.05;;
37299;SDS011;23184;51.902;12.836;2024-01-30T14:07:02;10.80;;;6.80;;
37299;SDS011;23184;51.902;12.836;2024-01-30T14:09:28;13.23;;;7.05;;
37299;SDS011;23184;51.902;12.836;2024-01-30T14:11:54;16.80;;;7.07;;
37299;SDS011;23184;51.902;12.836;2024-01-30T14:14:20;14.82;;;7.50;;
37299;SDS011;23184;51.902;12.836;2024-01-30T14:16:45;15.23;;;7.00;;
37299;SDS011;23184;51.902;12.836;2024-01-30T14:19:11;13.77;;;6.72;;